Time;durP1;ratioP1;P1;durP2;ratioP2;P2;SDS_P1;SDS_P2;PMS_P1;PMS_P2;Temp;Humidity;BMP_temperature;BMP_pressure;BME280_temperature;BME280_humidity;BME280_pressure;Samples;Min_cycle;Max_cycle;Signal;HPM_P1;HPM_P2
2023/01/09 00:00:14;;;;;;;0.57;0.57;;;;;;;5.87;100.00;95182.44;29395;245;63004;-58
2023/01/09 00:00:49;;;;;;;0.50;0.50;;;;;;;5.87;100.00;95182.44;29395;257;63009;-57
2023/01/09 00:01:26;;;;;;;0.50;0.50;;;;;;;5.87;100.00;95187.81;29395;197;63004;-58
2023/01/09 00:01:58;;;;;;;0.50;0.50;;;;;;;5.88;100.00;95188.62;29395;208;63009;-57
2023/01/09 00:02:29;;;;;;;0.50;0.50;;;;;;;5.89;100.00;95185.63;29394;196;64009;-57
2023/01/09 00:03:01;;;;;;;0.50;0.50;;;;;;;5.88;100.00;95192.13;29394;202;64013;-58
2023/01/09 00:03:32;;;;;;;0.50;0.50;;;;;;;5.86;100.00;95180.84;29395;238;63005;-57
2023/01/09 00:04:04;;;;;;;0.70;0.70;;;;;;;5.85;100.00;95176.56;29395;224;63009;-57
2023/01/09 00:04:36;;;;;;;0.50;0.50;;;;;;;5.85;100.00;95190.03;29395;207;63005;-58
2023/01/09 00:05:09;;;;;;;0.50;0.50;;;;;;;5.85;100.00;95187.34;29395;242;63009;-58
2023/01/09 00:05:41;;;;;;;0.50;0.50;;;;;;;5.85;100.00;95190.03;29395;277;63005;-57
2023/01/09 00:06:12;;;;;;;0.50;0.50;;;;;;;5.88;100.00;95178.66;29394;272;64013;-60
2023/01/09 00:06:52;;;;;;;0.50;0.50;;;;;;;5.91;100.00;95186.13;29395;277;63005;-57
2023/01/09 00:07:24;;;;;;;0.50;0.50;;;;;;;5.93;100.00;95186.63;29395;276;63009;-58
2023/01/09 00:07:56;;;;;;;0.60;0.60;;;;;;;5.93;100.00;95183.13;29394;211;64009;-58
2023/01/09 00:08:27;;;;;;;0.60;0.60;;;;;;;5.92;100.00;95185.03;29395;221;63009;-57
2023/01/09 00:08:58;;;;;;;0.50;0.50;;;;;;;5.92;100.00;95186.91;29395;311;63004;-57
2023/01/09 00:09:30;;;;;;;0.52;0.52;;;;;;;5.91;100.00;95186.13;29395;197;63009;-58
2023/01/09 00:10:01;;;;;;;0.50;0.50;;;;;;;5.92;100.00;95184.22;29395;224;63004;-58
2023/01/09 00:10:32;;;;;;;0.57;0.57;;;;;;;5.92;100.00;95185.03;29395;227;63008;-57
2023/01/09 00:11:04;;;;;;;0.50;0.50;;;;;;;5.92;100.00;95182.34;29395;221;63005;-57
2023/01/09 00:11:36;;;;;;;0.57;0.57;;;;;;;5.98;100.00;95178.44;29395;203;63009;-58
2023/01/09 00:12:08;;;;;;;0.50;0.50;;;;;;;5.98;100.00;95183.81;29394;216;64002;-57
2023/01/09 00:12:39;;;;;;;0.60;0.60;;;;;;;5.98;100.00;95181.12;29395;276;63009;-59
2023/01/09 00:13:12;;;;;;;0.50;0.50;;;;;;;5.98;100.00;95183.81;29395;197;63008;-57
2023/01/09 00:13:45;;;;;;;0.60;0.60;;;;;;;5.99;100.00;95185.41;29395;219;63009;-57
2023/01/09 00:14:18;;;;;;;0.50;0.50;;;;;;;5.99;100.00;95182.72;29395;229;63005;-58
2023/01/09 00:14:49;;;;;;;0.50;0.50;;;;;;;5.98;100.00;95178.44;29395;205;63009;-58
2023/01/09 00:15:20;;;;;;;0.50;0.50;;;;;;;5.99;100.00;95185.41;29395;198;63004;-66
2023/01/09 00:15:51;;;;;;;0.50;0.50;;;;;;;6.00;100.00;95178.91;29395;206;63009;-57
2023/01/09 00:16:23;;;;;;;0.50;0.50;;;;;;;6.00;100.00;95181.59;29395;223;63009;-57
2023/01/09 00:16:55;;;;;;;0.50;0.50;;;;;;;6.00;100.00;95181.59;29394;205;64013;-58
2023/01/09 00:17:27;;;;;;;0.50;0.50;;;;;;;6.03;100.00;95188.28;29395;202;63004;-58
2023/01/09 00:17:58;;;;;;;0.50;0.50;;;;;;;6.02;100.00;95189.38;29395;231;63008;-57
2023/01/09 00:18:29;;;;;;;0.50;0.50;;;;;;;5.99;100.00;95185.41;29395;272;63004;-58
2023/01/09 00:19:01;;;;;;;0.50;0.50;;;;;;;5.97;100.00;95189.50;29395;215;63009;-58
2023/01/09 00:19:32;;;;;;;0.50;0.50;;;;;;;5.96;100.00;95186.00;29395;252;63005;-57
2023/01/09 00:20:05;;;;;;;0.50;0.50;;;;;;;5.93;100.00;95186.63;29395;210;63014;-57
2023/01/09 00:20:36;;;;;;;0.50;0.50;;;;;;;5.90;100.00;95187.22;29395;249;63005;-58
2023/01/09 00:21:10;;;;;;;0.50;0.50;;;;;;;5.89;100.00;95185.63;29395;255;63009;-57
2023/01/09 00:21:44;;;;;;;0.50;0.50;;;;;;;5.89;100.00;95191.00;29395;253;63005;-57
2023/01/09 00:22:15;;;;;;;0.50;0.50;;;;;;;5.89;100.00;95185.63;29394;255;64013;-58
2023/01/09 00:22:47;;;;;;;0.50;0.50;;;;;;;5.88;100.00;95184.03;29395;199;63004;-57
2023/01/09 00:23:18;;;;;;;0.50;0.50;;;;;;;5.87;100.00;95177.06;29395;214;63016;-67
2023/01/09 00:23:53;;;;;;;0.50;0.50;;;;;;;5.88;100.00;95181.34;29395;199;63004;-57
2023/01/09 00:24:25;;;;;;;0.50;0.50;;;;;;;5.89;100.00;95180.25;29395;233;63008;-58
2023/01/09 00:24:56;;;;;;;0.50;0.50;;;;;;;5.90;100.00;95184.53;29395;300;63004;-58
2023/01/09 00:25:30;;;;;;;0.50;0.50;;;;;;;5.91;100.00;95178.03;29395;281;63016;-57
2023/01/09 00:26:10;;;;;;;0.50;0.50;;;;;;;5.91;100.00;95178.03;29395;254;63005;-57
2023/01/09 00:26:41;;;;;;;0.50;0.50;;;;;;;5.92;100.00;95179.62;29395;254;63016;-57
2023/01/09 00:27:13;;;;;;;0.50;0.50;;;;;;;5.97;100.00;95176.84;29395;211;63005;-58
2023/01/09 00:27:44;;;;;;;0.50;0.50;;;;;;;5.95;100.00;95173.66;29394;202;64013;-65
2023/01/09 00:28:16;;;;;;;0.50;0.50;;;;;;;5.99;100.00;95182.72;29395;205;63005;-63
2023/01/09 00:28:49;;;;;;;0.50;0.50;;;;;;;5.92;100.00;95163.50;29395;216;63009;-57
2023/01/09 00:29:20;;;;;;;0.60;0.60;;;;;;;6.00;100.00;95175.44;29395;225;63009;-57
2023/01/09 00:29:52;;;;;;;0.50;0.50;;;;;;;5.98;100.00;95178.44;29395;197;63009;-57
2023/01/09 00:30:23;;;;;;;0.50;0.50;;;;;;;6.00;100.00;95178.91;29395;229;63004;-57
2023/01/09 00:30:56;;;;;;;0.50;0.50;;;;;;;6.01;100.00;95180.50;29395;199;63009;-66
2023/01/09 00:31:27;;;;;;;0.50;0.50;;;;;;;6.02;100.00;95179.41;29395;278;63004;-57
2023/01/09 00:31:59;;;;;;;0.50;0.50;;;;;;;6.01;100.00;95177.81;29394;220;64013;-66
2023/01/09 00:32:31;;;;;;;0.50;0.50;;;;;;;6.00;100.00;95178.91;29395;218;63004;-59
2023/01/09 00:33:02;;;;;;;0.50;0.50;;;;;;;5.98;100.00;95178.44;29395;300;63009;-58
2023/01/09 00:33:41;;;;;;;0.50;0.50;;;;;;;5.98;100.00;95178.44;29395;236;63005;-58
2023/01/09 00:34:12;;;;;;;0.50;0.50;;;;;;;5.99;100.00;95188.09;29395;216;63009;-57
2023/01/09 00:34:43;;;;;;;0.50;0.50;;;;;;;6.01;100.00;95183.19;29395;299;63005;-58
2023/01/09 00:35:17;;;;;;;0.50;0.50;;;;;;;6.03;100.00;95190.97;29394;231;64013;-57
2023/01/09 00:35:48;;;;;;;0.50;0.50;;;;;;;6.01;100.00;95191.28;29395;271;63005;-59
2023/01/09 00:36:19;;;;;;;0.50;0.50;;;;;;;6.03;100.00;95185.59;29395;206;63009;-57
2023/01/09 00:36:55;;;;;;;0.50;0.50;;;;;;;6.08;100.00;95190.06;29394;223;64009;-57
2023/01/09 00:37:26;;;;;;;0.50;0.50;;;;;;;6.09;100.00;95191.66;29394;208;64013;-58
2023/01/09 00:37:57;;;;;;;0.50;0.50;;;;;;;6.09;100.00;95194.34;29395;205;63004;-58
2023/01/09 00:38:28;;;;;;;0.50;0.50;;;;;;;6.06;99.90;95190.38;29395;203;63009;-58
2023/01/09 00:39:00;;;;;;;0.50;0.50;;;;;;;6.05;100.00;95188.78;29395;254;63004;-58
2023/01/09 00:39:31;;;;;;;0.50;0.50;;;;;;;6.04;100.00;95193.38;29395;210;63008;-65
2023/01/09 00:40:03;;;;;;;0.50;0.50;;;;;;;6.04;100.00;95192.56;29395;260;63004;-57
2023/01/09 00:40:34;;;;;;;0.50;0.50;;;;;;;6.03;100.00;95191.78;29395;215;63018;-59
2023/01/09 00:41:09;;;;;;;0.50;0.50;;;;;;;6.02;100.00;95192.88;29395;239;63001;-59
2023/01/09 00:41:51;;;;;;;0.50;0.50;;;;;;;6.00;100.00;95187.00;29394;215;64014;-57
2023/01/09 00:42:26;;;;;;;0.50;0.50;;;;;;;6.00;100.00;95192.37;29394;218;64009;-59
2023/01/09 00:43:00;;;;;;;0.50;0.50;;;;;;;6.00;100.00;95197.75;29395;224;63013;-57
2023/01/09 00:43:44;;;;;;;0.50;0.50;;;;;;;6.01;100.00;95190.47;29395;258;63005;-57
2023/01/09 00:44:32;;;;;;;0.50;0.50;;;;;;;6.03;100.00;95191.78;29395;251;63019;-57
2023/01/09 00:45:10;;;;;;;0.50;0.50;;;;;;;6.08;100.00;95200.84;29395;258;63004;-58
2023/01/09 00:45:41;;;;;;;0.50;0.50;;;;;;;6.04;100.00;95197.94;29395;243;63009;-57
2023/01/09 00:46:14;;;;;;;0.50;0.50;;;;;;;6.03;100.00;95191.78;29395;200;63007;-64
2023/01/09 00:46:53;;;;;;;0.50;0.50;;;;;;;6.01;100.00;95183.19;29395;223;63016;-66
2023/01/09 00:47:32;;;;;;;0.50;0.50;;;;;;;6.01;100.00;95193.19;29394;252;64008;-57
2023/01/09 00:48:10;;;;;;;0.50;0.50;;;;;;;5.99;100.00;95190.00;29395;263;63011;-58
2023/01/09 00:48:44;;;;;;;0.50;0.50;;;;;;;6.03;100.00;95190.97;29395;267;63005;-59
2023/01/09 00:49:17;;;;;;;0.50;0.50;;;;;;;6.10;100.00;95193.25;29395;210;63009;-58
2023/01/09 00:50:05;;;;;;;0.50;0.50;;;;;;;6.12;100.00;95193.75;29394;197;64009;-57
2023/01/09 00:50:37;;;;;;;0.50;0.50;;;;;;;6.12;100.00;95193.75;29395;203;63009;-57
2023/01/09 00:51:10;;;;;;;0.50;0.50;;;;;;;6.11;100.00;95192.16;29395;301;63006;-58
2023/01/09 00:51:42;;;;;;;0.50;0.50;;;;;;;6.12;100.00;95199.13;29394;202;64013;-57
2023/01/09 00:52:14;;;;;;;0.50;0.50;;;;;;;6.14;100.00;95192.34;29395;199;63004;-65
2023/01/09 00:52:47;;;;;;;0.60;0.60;;;;;;;6.13;100.00;95190.75;29395;273;63018;-58
2023/01/09 00:53:22;;;;;;;0.50;0.50;;;;;;;6.12;100.00;95199.13;29395;215;63004;-58
2023/01/09 00:53:57;;;;;;;0.50;0.50;;;;;;;6.10;100.00;95190.56;29395;219;63009;-66
2023/01/09 00:54:29;;;;;;;0.50;0.50;;;;;;;6.08;100.00;95188.16;29394;213;64009;-58
2023/01/09 00:55:02;;;;;;;0.50;0.50;;;;;;;6.09;100.00;95186.28;29395;206;63019;-57
2023/01/09 00:55:37;;;;;;;0.50;0.50;;;;;;;6.11;100.00;95176.78;29395;225;63005;-57
2023/01/09 00:56:13;;;;;;;0.50;0.50;;;;;;;6.13;100.00;95184.56;29395;209;63009;-57
2023/01/09 00:56:44;;;;;;;0.50;0.50;;;;;;;6.14;100.00;95186.16;29395;222;63005;-58
2023/01/09 00:57:16;;;;;;;0.50;0.50;;;;;;;6.13;100.00;95185.34;29395;226;63009;-57
2023/01/09 00:57:48;;;;;;;0.50;0.50;;;;;;;6.14;100.00;95186.16;29394;256;64009;-58
2023/01/09 00:58:19;;;;;;;0.60;0.60;;;;;;;6.14;100.00;95191.53;29395;200;63009;-57
2023/01/09 00:58:51;;;;;;;0.60;0.60;;;;;;;6.13;100.00;95193.44;29395;227;63005;-58
2023/01/09 00:59:23;;;;;;;0.50;0.50;;;;;;;6.16;100.00;95189.34;29394;258;64013;-67
2023/01/09 00:59:57;;;;;;;0.50;0.50;;;;;;;6.21;99.99;95181.16;29395;285;63004;-64
2023/01/09 01:00:29;;;;;;;0.50;0.50;;;;;;;6.23;99.59;95189.72;29395;204;63009;-57
2023/01/09 01:01:02;;;;;;;0.50;0.50;;;;;;;6.21;99.69;95190.03;29395;199;63004;-58
2023/01/09 01:01:33;;;;;;;0.50;0.50;;;;;;;6.23;99.30;95185.13;29395;254;63009;-57
2023/01/09 01:02:06;;;;;;;0.50;0.50;;;;;;;6.25;99.30;95182.09;29395;261;63004;-57
2023/01/09 01:02:38;;;;;;;0.50;0.50;;;;;;;6.24;99.03;95191.28;29394;261;64013;-57
2023/01/09 01:03:09;;;;;;;0.50;0.50;;;;;;;6.26;99.13;95186.38;29395;224;63005;-57
2023/01/09 01:03:40;;;;;;;0.50;0.50;;;;;;;6.37;98.61;95190.44;29395;288;63009;-66
2023/01/09 01:07:37;;;;;;;0.60;0.60;;;;;;;6.36;98.02;95184.25;29395;210;63004;-57
2023/01/09 01:08:14;;;;;;;0.50;0.50;;;;;;;6.36;97.82;95180.75;29394;227;64004;-58
2023/01/09 01:08:45;;;;;;;0.50;0.50;;;;;;;6.36;97.59;95186.13;29395;205;63012;-66
2023/01/09 01:09:16;;;;;;;0.50;0.50;;;;;;;6.33;97.47;95184.84;29394;286;64013;-58
2023/01/09 01:09:48;;;;;;;0.50;0.50;;;;;;;6.33;97.95;95184.06;29395;296;63004;-59
2023/01/09 01:10:23;;;;;;;0.50;0.50;;;;;;;6.29;97.75;95189.25;29395;206;63009;-58
2023/01/09 01:10:55;;;;;;;0.50;0.50;;;;;;;6.28;98.13;95186.88;29396;237;63005;-57
2023/01/09 01:11:27;;;;;;;0.50;0.50;;;;;;;6.33;97.96;95186.75;29396;305;63019;-57
2023/01/09 01:11:59;;;;;;;0.57;0.57;;;;;;;6.34;97.92;95185.66;29396;257;63005;-58
2023/01/09 01:12:30;;;;;;;0.50;0.50;;;;;;;6.34;97.60;95174.88;29396;204;63009;-58
2023/01/09 01:13:02;;;;;;;0.50;0.50;;;;;;;6.33;97.87;95175.97;29396;250;63008;-57
2023/01/09 01:13:34;;;;;;;0.50;0.50;;;;;;;6.33;97.96;95173.28;29395;226;64013;-58
2023/01/09 01:14:09;;;;;;;0.60;0.60;;;;;;;6.31;97.90;95176.28;29396;213;63004;-58
2023/01/09 01:14:47;;;;;;;0.50;0.50;;;;;;;6.29;97.87;95175.78;29395;221;64013;-66
2023/01/09 01:15:20;;;;;;;0.50;0.50;;;;;;;6.28;98.03;95176.87;29396;222;63004;-58
2023/01/09 01:15:51;;;;;;;0.50;0.50;;;;;;;6.28;98.09;95181.47;29396;205;63009;-57
2023/01/09 01:16:22;;;;;;;0.55;0.55;;;;;;;6.33;98.37;95175.97;29396;203;63004;-60
2023/01/09 01:16:54;;;;;;;0.50;0.50;;;;;;;6.42;97.66;95176.84;29396;215;63008;-59
2023/01/09 01:17:25;;;;;;;0.50;0.50;;;;;;;6.42;97.16;95176.84;29396;232;63005;-57
2023/01/09 01:17:57;;;;;;;0.50;0.50;;;;;;;6.41;96.89;95175.25;29396;229;63009;-58
2023/01/09 01:18:28;;;;;;;0.50;0.50;;;;;;;6.38;97.03;95181.25;29396;209;63005;-57
2023/01/09 01:18:59;;;;;;;0.50;0.50;;;;;;;6.37;96.89;95185.03;29396;274;63009;-57
2023/01/09 01:19:35;;;;;;;0.50;0.50;;;;;;;6.37;97.50;95185.84;29396;344;63005;-57
2023/01/09 01:20:15;;;;;;;0.50;0.50;;;;;;;6.35;97.59;95189.94;29395;201;64013;-57
2023/01/09 01:20:46;;;;;;;0.50;0.50;;;;;;;6.36;97.71;95178.84;29396;257;63005;-57
2023/01/09 01:21:17;;;;;;;0.50;0.50;;;;;;;6.35;97.38;95187.25;29395;230;64009;-58
2023/01/09 01:21:49;;;;;;;0.50;0.50;;;;;;;6.35;97.47;95179.16;29396;263;63004;-58
2023/01/09 01:22:21;;;;;;;0.50;0.50;;;;;;;6.36;97.32;95183.44;29396;274;63009;-58
2023/01/09 01:22:53;;;;;;;0.50;0.50;;;;;;;6.34;97.32;95182.97;29396;197;63004;-57
2023/01/09 01:23:24;;;;;;;0.50;0.50;;;;;;;6.31;97.60;95175.47;29396;253;63009;-58
2023/01/09 01:23:55;;;;;;;0.50;0.50;;;;;;;6.32;97.91;95182.47;29396;220;63004;-57
2023/01/09 01:24:27;;;;;;;0.50;0.50;;;;;;;6.33;97.83;95190.25;29396;265;63008;-58
2023/01/09 01:24:58;;;;;;;0.50;0.50;;;;;;;6.33;98.18;95190.25;29396;218;63017;-57
2023/01/09 01:25:29;;;;;;;0.50;0.50;;;;;;;6.31;98.23;95188.94;29395;209;64005;-57
2023/01/09 01:26:18;;;;;;;0.50;0.50;;;;;;;6.31;98.41;95186.25;29396;292;63005;-57
2023/01/09 01:26:49;;;;;;;0.50;0.50;;;;;;;6.39;97.61;95188.22;29396;212;63009;-58
2023/01/09 01:27:21;;;;;;;0.50;0.50;;;;;;;6.38;97.67;95182.03;29396;204;63005;-57
2023/01/09 01:27:52;;;;;;;0.50;0.50;;;;;;;6.41;97.23;95186.03;29396;221;63009;-58
2023/01/09 01:28:23;;;;;;;0.50;0.50;;;;;;;6.40;97.23;95192.50;29396;234;63005;-57
2023/01/09 01:28:58;;;;;;;0.50;0.50;;;;;;;6.37;97.03;95187.72;29395;266;64013;-58
2023/01/09 01:29:29;;;;;;;0.50;0.50;;;;;;;6.35;96.92;95188.03;29395;202;64009;-57
2023/01/09 01:30:01;;;;;;;0.50;0.50;;;;;;;6.34;97.12;95180.25;29395;310;64013;-57
2023/01/09 01:30:33;;;;;;;0.50;0.50;;;;;;;6.32;97.56;95185.16;29396;204;63004;-57
2023/01/09 01:31:05;;;;;;;0.50;0.50;;;;;;;6.31;97.28;95186.25;29396;222;63016;-58
2023/01/09 01:31:39;;;;;;;0.50;0.50;;;;;;;6.35;97.83;95181.84;29396;204;63018;-64
2023/01/09 01:32:10;;;;;;;0.50;0.50;;;;;;;6.37;97.57;95179.66;29395;206;64013;-57
2023/01/09 01:32:42;;;;;;;0.50;0.50;;;;;;;6.37;97.48;95179.66;29396;230;63005;-57
2023/01/09 01:33:13;;;;;;;0.50;0.50;;;;;;;6.34;97.20;95186.44;29396;202;63009;-57
2023/01/09 01:33:45;;;;;;;0.50;0.50;;;;;;;6.33;97.62;95182.16;29396;282;63016;-58
2023/01/09 01:34:16;;;;;;;0.50;0.50;;;;;;;6.32;97.55;95182.47;29396;220;63009;-57
2023/01/09 01:34:47;;;;;;;0.50;0.50;;;;;;;6.33;98.00;95184.84;29396;217;63005;-57
2023/01/09 01:35:19;;;;;;;0.50;0.50;;;;;;;6.32;97.70;95179.78;29396;195;63009;-57
2023/01/09 01:35:50;;;;;;;0.50;0.50;;;;;;;6.30;97.55;95177.37;29396;216;63005;-56
2023/01/09 01:36:21;;;;;;;0.50;0.50;;;;;;;6.29;97.66;95185.78;29395;251;64013;-57
2023/01/09 01:36:52;;;;;;;0.50;0.50;;;;;;;6.29;97.63;95180.38;29396;220;63004;-58
2023/01/09 01:37:23;;;;;;;0.50;0.50;;;;;;;6.28;97.78;95181.47;29396;220;63009;-57
2023/01/09 01:37:55;;;;;;;0.50;0.50;;;;;;;6.28;98.04;95178.78;29396;215;63004;-59
2023/01/09 01:38:26;;;;;;;0.50;0.50;;;;;;;6.35;98.03;95182.66;29395;284;64013;-57
2023/01/09 01:38:57;;;;;;;0.50;0.50;;;;;;;6.41;97.89;95175.25;29396;230;63000;-60
2023/01/09 01:39:28;;;;;;;0.50;0.50;;;;;;;6.47;96.87;95176.72;29396;208;63008;-58
2023/01/09 01:40:00;;;;;;;0.50;0.50;;;;;;;6.45;96.92;95181.59;29396;286;63005;-57
2023/01/09 01:40:33;;;;;;;0.60;0.60;;;;;;;6.47;96.85;95176.72;29395;275;64014;-58
2023/01/09 01:41:05;;;;;;;0.50;0.50;;;;;;;6.47;96.35;95176.72;29396;293;63005;-57
2023/01/09 01:41:37;;;;;;;0.60;0.60;;;;;;;6.45;96.56;95176.22;29396;255;63018;-57
2023/01/09 01:42:12;;;;;;;0.50;0.50;;;;;;;6.44;96.68;95169.25;29396;271;63005;-58
2023/01/09 01:42:52;;;;;;;0.50;0.50;;;;;;;6.44;96.57;95174.63;29396;197;63009;-58
2023/01/09 01:43:23;;;;;;;0.50;0.50;;;;;;;6.42;96.94;95176.03;29396;253;63005;-57
2023/01/09 01:44:25;;;;;;;0.50;0.50;;;;;;;6.38;96.71;95175.84;29396;248;63018;-66
2023/01/09 01:45:12;;;;;;;0.60;0.60;;;;;;;6.35;97.39;95177.25;29418;225;63004;-57
2023/01/09 01:45:43;;;;;;;0.50;0.50;;;;;;;6.35;97.48;95176.47;29395;209;64006;-58
2023/01/09 01:46:18;;;;;;;0.50;0.50;;;;;;;6.35;97.59;95171.88;29396;209;63006;-56
2023/01/09 01:46:52;;;;;;;0.50;0.50;;;;;;;6.36;97.34;95164.59;29396;202;63008;-57
2023/01/09 01:47:49;;;;;;;0.50;0.50;;;;;;;6.35;97.50;95168.37;29396;275;63004;-57
2023/01/09 01:48:26;;;;;;;0.50;0.50;;;;;;;6.32;97.50;95166.31;29395;271;64014;-57
2023/01/09 01:49:13;;;;;;;0.50;0.50;;;;;;;6.31;97.71;95172.78;29396;213;63005;-67
2023/01/09 01:49:45;;;;;;;0.50;0.50;;;;;;;6.28;97.67;95168.81;29396;229;63009;-59
2023/01/09 01:50:40;;;;;;;0.50;0.50;;;;;;;6.25;97.78;95172.12;29396;257;63005;-57
2023/01/09 01:51:14;;;;;;;0.50;0.50;;;;;;;6.26;98.12;95181.00;29395;202;64013;-58
2023/01/09 01:51:50;;;;;;;0.50;0.50;;;;;;;6.27;98.13;95169.13;29397;225;63004;-57
2023/01/09 01:52:24;;;;;;;0.50;0.50;;;;;;;6.28;98.32;95168.81;29396;204;63021;-59
2023/01/09 01:53:09;;;;;;;0.50;0.50;;;;;;;6.45;97.38;95173.53;29396;210;63004;-58
2023/01/09 01:53:45;;;;;;;0.50;0.50;;;;;;;6.45;96.61;95176.22;29396;235;63009;-57
2023/01/09 01:54:22;;;;;;;0.50;0.50;;;;;;;6.42;96.76;95176.03;29396;216;63004;-57
2023/01/09 01:54:54;;;;;;;0.60;0.60;;;;;;;6.37;96.74;95185.03;29397;196;63008;-57
2023/01/09 01:55:25;;;;;;;0.50;0.50;;;;;;;6.35;97.03;95179.16;29396;255;64009;-57
2023/01/09 01:56:14;;;;;;;0.50;0.50;;;;;;;6.29;97.33;95183.87;29397;203;63017;-59
2023/01/09 01:56:52;;;;;;;0.50;0.50;;;;;;;6.25;97.60;95187.47;29397;227;63005;-58
2023/01/09 01:57:24;;;;;;;0.60;0.60;;;;;;;6.20;97.48;95193.00;29397;229;63009;-58
2023/01/09 01:58:00;;;;;;;0.60;0.60;;;;;;;6.18;98.02;95189.84;29397;213;63005;-57
2023/01/09 01:58:35;;;;;;;0.50;0.50;;;;;;;6.16;98.38;95186.66;29396;240;64013;-58
2023/01/09 01:59:22;;;;;;;0.60;0.60;;;;;;;6.18;98.28;95195.22;29397;209;63005;-57
2023/01/09 01:59:56;;;;;;;0.57;0.57;;;;;;;6.15;98.37;95187.75;29397;208;63009;-57
2023/01/09 02:00:36;;;;;;;0.57;0.57;;;;;;;6.17;98.69;95190.94;29397;205;63004;-57
2023/01/09 02:01:08;;;;;;;0.50;0.50;;;;;;;6.20;98.65;95193.00;29397;210;63009;-59
2023/01/09 02:01:43;;;;;;;0.50;0.50;;;;;;;6.20;98.61;95185.72;29396;196;64009;-57
2023/01/09 02:02:22;;;;;;;0.50;0.50;;;;;;;6.22;98.62;95194.31;29396;204;64013;-58
2023/01/09 02:02:54;;;;;;;0.50;0.50;;;;;;;6.23;98.87;95182.44;29397;231;63011;-57
2023/01/09 02:03:27;;;;;;;0.50;0.50;;;;;;;6.24;98.58;95185.88;29397;228;63009;-57
2023/01/09 02:04:01;;;;;;;0.50;0.50;;;;;;;6.23;98.80;95190.50;29397;241;63005;-57
2023/01/09 02:04:38;;;;;;;0.60;0.60;;;;;;;6.23;98.39;95182.44;29397;229;63020;-57
2023/01/09 02:05:10;;;;;;;0.50;0.50;;;;;;;6.26;98.29;95187.19;29397;280;63005;-57
2023/01/09 02:05:43;;;;;;;0.50;0.50;;;;;;;6.28;97.97;95181.47;29397;210;63009;-58
2023/01/09 02:06:15;;;;;;;0.50;0.50;;;;;;;6.30;98.14;95179.28;29397;241;63005;-57
2023/01/09 02:06:50;;;;;;;0.50;0.50;;;;;;;6.29;98.00;95183.06;29397;216;63009;-55
2023/01/09 02:07:21;;;;;;;0.60;0.60;;;;;;;6.28;97.72;95176.87;29395;203;64009;-57
2023/01/09 02:07:52;;;;;;;0.50;0.50;;;;;;;6.33;97.58;95175.97;29397;236;63009;-58
2023/01/09 02:08:24;;;;;;;0.50;0.50;;;;;;;6.31;97.26;95181.66;29396;254;63004;-58
2023/01/09 02:08:56;;;;;;;0.50;0.50;;;;;;;6.34;97.43;95174.88;29396;222;63009;-57
2023/01/09 02:09:28;;;;;;;0.50;0.50;;;;;;;6.32;97.55;95171.69;29396;196;63004;-58
2023/01/09 02:09:59;;;;;;;0.62;0.62;;;;;;;6.34;97.24;95175.66;29396;265;63008;-58
2023/01/09 02:10:32;;;;;;;0.50;0.50;;;;;;;6.33;97.19;95175.97;29396;254;63005;-57
2023/01/09 02:11:04;;;;;;;0.50;0.50;;;;;;;6.28;97.25;95176.87;29396;204;63017;-56
2023/01/09 02:11:35;;;;;;;0.50;0.50;;;;;;;6.23;97.78;95174.34;29395;202;64009;-58
2023/01/09 02:12:24;;;;;;;0.50;0.50;;;;;;;6.20;97.61;95180.34;29396;227;63009;-58
2023/01/09 02:12:56;;;;;;;0.50;0.50;;;;;;;6.23;98.38;95178.94;29396;222;63005;-58
2023/01/09 02:13:28;;;;;;;0.50;0.50;;;;;;;6.21;98.18;95171.16;29396;262;63009;-56
2023/01/09 02:14:02;;;;;;;0.50;0.50;;;;;;;6.20;98.21;95163.41;29396;196;63004;-57
2023/01/09 02:14:33;;;;;;;0.50;0.50;;;;;;;6.20;98.62;95174.16;29396;198;63009;-57
2023/01/09 02:15:11;;;;;;;0.50;0.50;;;;;;;6.26;98.57;95167.53;29396;295;63004;-58
2023/01/09 02:16:18;;;;;;;0.50;0.50;;;;;;;6.31;97.86;95165.50;29396;247;63009;-57
2023/01/09 02:17:37;;;;;;;0.50;0.50;;;;;;;6.26;97.60;95170.22;29395;202;64008;-58
2023/01/09 02:18:27;;;;;;;0.50;0.50;;;;;;;6.23;97.69;95170.84;29396;243;63005;-57
2023/01/09 02:19:45;;;;;;;0.50;0.50;;;;;;;6.26;97.78;95162.13;29396;230;63017;-57
2023/01/09 02:20:57;;;;;;;0.50;0.50;;;;;;;6.25;97.40;95165.94;29396;208;63005;-57
2023/01/09 02:22:09;;;;;;;0.60;0.60;;;;;;;6.23;97.52;95173.56;29417;222;64013;-57
2023/01/09 02:23:31;;;;;;;0.60;0.60;;;;;;;6.22;97.74;95161.19;29418;206;63009;-57
2023/01/09 02:25:03;;;;;;;0.50;0.50;;;;;;;6.18;97.84;95168.28;29396;242;63004;-58
2023/01/09 02:26:18;;;;;;;0.50;0.50;;;;;;;6.17;97.99;95166.69;29396;199;63009;-58
2023/01/09 02:27:50;;;;;;;0.50;0.50;;;;;;;6.13;98.42;95163.81;29395;282;64009;-58
2023/01/09 02:29:21;;;;;;;0.50;0.50;;;;;;;6.09;98.38;95168.22;29397;240;63009;-58
2023/01/09 02:30:40;;;;;;;0.50;0.50;;;;;;;6.06;98.80;95166.13;29396;214;63004;-57
2023/01/09 02:31:44;;;;;;;0.52;0.52;;;;;;;6.08;98.69;95161.25;29395;206;64013;-57
2023/01/09 02:32:43;;;;;;;0.50;0.50;;;;;;;6.10;98.50;95167.13;29396;206;63009;-57
2023/01/09 02:33:57;;;;;;;0.60;0.60;;;;;;;6.10;98.41;95166.31;29396;211;63005;-58
2023/01/09 02:34:59;;;;;;;0.50;0.50;;;;;;;6.14;98.43;95164.62;29396;233;63009;-59
2023/01/09 02:35:59;;;;;;;0.60;0.60;;;;;;;6.12;98.27;95156.03;29396;218;63005;-57
2023/01/09 02:36:40;;;;;;;0.50;0.50;;;;;;;6.17;97.96;95155.91;29395;282;64013;-57
2023/01/09 02:37:26;;;;;;;0.60;0.60;;;;;;;6.18;97.73;95173.69;29396;196;63004;-57
2023/01/09 02:38:25;;;;;;;0.60;0.60;;;;;;;6.20;97.22;95168.78;29396;202;63009;-57
2023/01/09 02:39:21;;;;;;;0.55;0.55;;;;;;;6.15;97.43;95166.19;29396;211;63017;-57
2023/01/09 02:40:26;;;;;;;0.50;0.50;;;;;;;6.13;98.14;95173.78;29396;199;63009;-57
2023/01/09 02:41:53;;;;;;;0.50;0.50;;;;;;;6.11;98.34;95176.78;29396;220;63005;-57
2023/01/09 02:42:26;;;;;;;0.50;0.50;;;;;;;6.21;97.93;95191.91;29395;220;64002;-58
2023/01/09 02:42:59;;;;;;;0.50;0.50;;;;;;;6.24;98.03;95183.19;29396;252;63009;-58
2023/01/09 02:43:31;;;;;;;0.50;0.50;;;;;;;6.25;98.03;95193.66;29396;262;63011;-57
2023/01/09 02:44:32;;;;;;;0.50;0.50;;;;;;;6.20;97.91;95193.00;29396;222;63009;-68
2023/01/09 02:45:05;;;;;;;0.57;0.57;;;;;;;6.32;97.49;95187.84;29440;206;63010;-58
2023/01/09 02:45:36;;;;;;;0.50;0.50;;;;;;;6.39;96.48;95188.22;29396;272;63009;-59
2023/01/09 02:46:21;;;;;;;0.50;0.50;;;;;;;6.40;96.19;95189.81;29396;276;63004;-58
2023/01/09 02:47:26;;;;;;;0.50;0.50;;;;;;;6.37;96.45;95180.44;29395;292;64013;-59
2023/01/09 02:47:58;;;;;;;0.50;0.50;;;;;;;6.33;96.63;95184.06;29396;204;63005;-57
2023/01/09 02:48:30;;;;;;;0.50;0.50;;;;;;;6.37;96.47;95187.72;29396;236;63021;-57
2023/01/09 02:49:01;;;;;;;0.50;0.50;;;;;;;6.37;96.58;95185.03;29396;219;63005;-57
2023/01/09 02:49:39;;;;;;;0.50;0.50;;;;;;;6.33;96.20;95189.44;29396;197;63009;-59
2023/01/09 02:50:20;;;;;;;0.50;0.50;;;;;;;6.36;96.59;95180.75;29396;266;63005;-62
2023/01/09 02:51:00;;;;;;;;;;;;;;;6.38;95.90;95187.44;29996;983;6004;-58
2023/01/09 02:51:48;;;;;;;0.50;0.50;;;;;;;6.35;95.88;95189.94;29400;223;64013;-57
2023/01/09 02:52:58;;;;;;;0.50;0.50;;;;;;;6.28;95.98;95186.88;29396;206;63004;-57
2023/01/09 02:53:58;;;;;;;0.57;0.57;;;;;;;6.20;96.32;95190.31;29396;235;63004;-57
2023/01/09 02:54:59;;;;;;;0.50;0.50;;;;;;;6.20;96.77;95185.72;29395;248;64013;-58
2023/01/09 02:56:16;;;;;;;0.50;0.50;;;;;;;6.18;96.96;95187.12;29396;229;63005;-57
2023/01/09 02:57:30;;;;;;;0.50;0.50;;;;;;;6.15;97.04;95187.75;29396;239;63009;-58
2023/01/09 02:58:28;;;;;;;0.60;0.60;;;;;;;6.21;97.19;95189.22;29395;203;64009;-60
2023/01/09 02:59:52;;;;;;;0.60;0.60;;;;;;;6.21;96.66;95191.91;29397;202;63009;-69
2023/01/09 03:01:13;;;;;;;0.50;0.50;;;;;;;6.18;96.91;95197.91;29397;255;63004;-57
2023/01/09 03:02:28;;;;;;;0.60;0.60;;;;;;;6.18;97.23;95200.59;29395;203;63025;-66
2023/01/09 03:03:20;;;;;;;0.60;0.60;;;;;;;6.16;96.99;95200.13;29394;203;64009;-57
2023/01/09 03:04:18;;;;;;;0.55;0.55;;;;;;;6.17;96.78;95207.09;29395;278;63018;-57
2023/01/09 03:05:24;;;;;;;0.60;0.60;;;;;;;6.16;96.98;95210.88;29395;239;63005;-57
2023/01/09 03:06:14;;;;;;;0.50;0.50;;;;;;;6.20;97.10;95209.19;29395;299;63009;-57
2023/01/09 03:07:21;;;;;;;0.50;0.50;;;;;;;6.19;97.13;95210.28;29393;294;64009;-57
2023/01/09 03:08:16;;;;;;;0.60;0.60;;;;;;;6.17;97.21;95217.88;29395;231;63009;-57